createdAt,value
2022-09-23T00:01:43.999Z,24
2022-09-23T00:04:16.427Z,22
2022-09-23T00:06:49.081Z,22
2022-09-23T00:09:21.421Z,24
2022-09-23T00:11:53.976Z,24
2022-09-23T00:14:27.278Z,24
2022-09-23T00:16:59.655Z,22
2022-09-23T00:19:32.207Z,24
2022-09-23T00:22:04.343Z,16
2022-09-23T00:24:36.815Z,20
2022-09-23T00:27:08.930Z,20
2022-09-23T00:29:40.987Z,21
2022-09-23T00:32:14.098Z,20
2022-09-23T00:34:46.407Z,20
2022-09-23T00:37:18.665Z,19
2022-09-23T00:39:51.179Z,23
2022-09-23T00:42:23.617Z,20
2022-09-23T00:44:57.080Z,20
2022-09-23T00:47:29.758Z,24
2022-09-23T00:50:02.070Z,20
2022-09-23T00:52:34.497Z,24
2022-09-23T00:55:07.124Z,21
2022-09-23T00:57:39.866Z,20
2022-09-23T01:00:11.741Z,22
2022-09-23T01:02:44.205Z,24
2022-09-23T01:05:16.746Z,24
2022-09-23T01:07:48.903Z,23
2022-09-23T01:10:21.386Z,23
2022-09-23T01:12:59.125Z,24
2022-09-23T01:15:31.536Z,24
2022-09-23T01:18:04.031Z,24
2022-09-23T01:20:37.162Z,20
2022-09-23T01:23:09.760Z,21
2022-09-23T01:25:42.237Z,24
2022-09-23T01:28:14.892Z,20
2022-09-23T01:30:47.243Z,24
2022-09-23T01:33:19.573Z,23
2022-09-23T01:35:52.129Z,22
2022-09-23T01:38:24.683Z,20
2022-09-23T01:40:56.955Z,24
2022-09-23T01:43:29.657Z,20
2022-09-23T01:46:02.151Z,22
2022-09-23T01:48:34.906Z,22
2022-09-23T01:51:07.551Z,20
2022-09-23T01:53:40.006Z,20
2022-09-23T01:56:12.302Z,24
2022-09-23T01:58:44.977Z,20
2022-09-23T02:01:17.270Z,20
2022-09-23T02:03:49.719Z,20
2022-09-23T02:06:22.242Z,20
2022-09-23T02:08:55.048Z,20
2022-09-23T02:11:28.502Z,20
2022-09-23T02:14:01.153Z,18
2022-09-23T02:16:34.423Z,20
2022-09-23T02:19:06.920Z,20
2022-09-23T02:21:39.409Z,20
2022-09-23T02:24:11.756Z,20
2022-09-23T02:26:44.132Z,20
2022-09-23T02:29:16.712Z,17
2022-09-23T02:31:49.142Z,16
2022-09-23T02:34:21.997Z,16
2022-09-23T02:36:54.704Z,16
2022-09-23T02:39:27.199Z,18
2022-09-23T02:41:59.901Z,16
2022-09-23T02:44:32.310Z,16
2022-09-23T02:47:04.945Z,19
2022-09-23T02:49:37.763Z,16
2022-09-23T02:52:10.097Z,20
2022-09-23T02:54:43.631Z,20
2022-09-23T02:57:16.178Z,16
2022-09-23T02:59:48.464Z,20
2022-09-23T03:02:20.961Z,19
2022-09-23T03:04:53.841Z,20
2022-09-23T03:07:26.019Z,14
2022-09-23T03:09:58.611Z,16
2022-09-23T03:12:31.317Z,20
2022-09-23T03:15:03.897Z,20
2022-09-23T03:17:36.279Z,16
2022-09-23T03:20:08.844Z,20
2022-09-23T03:22:41.273Z,12
2022-09-23T03:25:13.631Z,16
2022-09-23T03:27:46.170Z,19
2022-09-23T03:30:18.501Z,18
2022-09-23T03:32:50.935Z,16
2022-09-23T03:35:23.161Z,19
2022-09-23T03:37:55.783Z,16
2022-09-23T03:40:28.371Z,16
2022-09-23T03:43:00.842Z,20
2022-09-23T03:45:33.697Z,20
2022-09-23T03:48:07.221Z,20
2022-09-23T03:50:39.817Z,20
2022-09-23T03:53:12.237Z,16
2022-09-23T03:55:44.659Z,21
2022-09-23T03:58:17.038Z,17
2022-09-23T04:00:49.462Z,18
2022-09-23T04:03:21.719Z,20
2022-09-23T04:05:53.947Z,20
2022-09-23T04:08:26.501Z,20
2022-09-23T04:10:59.151Z,20
2022-09-23T04:13:31.687Z,19
2022-09-23T04:16:04.381Z,20
2022-09-23T04:18:37.336Z,20
2022-09-23T04:21:08.224Z,20
2022-09-23T04:23:40.153Z,20
2022-09-23T04:26:13.540Z,24
2022-09-23T04:28:45.716Z,21
2022-09-23T04:31:17.896Z,20
2022-09-23T04:33:51.515Z,20
2022-09-23T04:36:27.857Z,20
2022-09-23T04:39:00.438Z,20
2022-09-23T04:41:32.877Z,20
2022-09-23T04:44:05.311Z,24
2022-09-23T04:46:37.844Z,23
2022-09-23T04:49:10.413Z,24
2022-09-23T04:51:42.791Z,24
2022-09-23T04:54:15.075Z,24
2022-09-23T04:56:47.275Z,20
2022-09-23T04:59:19.739Z,24
2022-09-23T05:01:52.284Z,22
2022-09-23T05:04:24.666Z,24
2022-09-23T05:06:59.480Z,24
2022-09-23T05:09:28.388Z,21
2022-09-23T05:12:00.469Z,23
2022-09-23T05:14:33.227Z,20
2022-09-23T05:17:06.748Z,20
2022-09-23T05:19:39.034Z,24
2022-09-23T05:22:11.484Z,24
2022-09-23T05:24:43.773Z,21
2022-09-23T05:27:16.202Z,24
2022-09-23T05:29:48.609Z,24
2022-09-23T05:32:21.131Z,24
2022-09-23T05:34:53.496Z,24
2022-09-23T05:37:25.839Z,24
2022-09-23T05:39:57.973Z,25
2022-09-23T05:42:28.505Z,26
2022-09-23T05:45:00.295Z,28
2022-09-23T05:47:32.646Z,24
2022-09-23T05:50:04.666Z,24
2022-09-23T05:52:36.697Z,24
2022-09-23T05:55:08.845Z,24
2022-09-23T05:57:40.720Z,27
2022-09-23T06:00:13.223Z,28
2022-09-23T06:02:45.391Z,28
2022-09-23T06:05:17.080Z,28
2022-09-23T06:07:49.422Z,25
2022-09-23T06:10:21.727Z,24
2022-09-23T06:12:54.231Z,28
2022-09-23T06:15:26.871Z,27
2022-09-23T06:17:59.506Z,28
2022-09-23T06:20:32.960Z,24
2022-09-23T06:23:09.290Z,28
2022-09-23T06:25:39.186Z,34
2022-09-23T06:28:11.726Z,32
2022-09-23T06:30:43.936Z,28
2022-09-23T06:33:20.331Z,28
2022-09-23T06:35:56.965Z,28
2022-09-23T06:38:21.751Z,31
2022-09-23T06:40:54.620Z,28
2022-09-23T06:43:26.935Z,20
2022-09-23T06:45:59.660Z,16
2022-09-23T06:48:32.380Z,16
2022-09-23T06:51:04.859Z,16
2022-09-23T06:53:39.469Z,17
2022-09-23T06:56:11.965Z,16
2022-09-23T06:58:44.461Z,15
2022-09-23T07:01:17.240Z,16
2022-09-23T07:03:49.745Z,17
2022-09-23T07:06:22.186Z,17
2022-09-23T07:08:54.769Z,20
2022-09-23T07:11:28.442Z,17
2022-09-23T07:14:00.882Z,16
2022-09-23T07:16:33.219Z,16
2022-09-23T07:19:06.100Z,18
2022-09-23T07:21:39.041Z,19
2022-09-23T07:24:13.673Z,16
2022-09-23T07:26:48.427Z,16
2022-09-23T07:29:20.885Z,16
2022-09-23T07:32:06.504Z,12
2022-09-23T07:34:28.893Z,16
2022-09-23T07:37:00.467Z,16
2022-09-23T07:39:32.965Z,14
2022-09-23T07:42:05.188Z,17
2022-09-23T07:44:37.257Z,16
2022-09-23T07:47:09.789Z,16
2022-09-23T07:49:41.824Z,16
2022-09-23T07:52:14.183Z,12
2022-09-23T07:54:46.833Z,15
2022-09-23T07:57:19.487Z,12
2022-09-23T07:59:51.956Z,16
2022-09-23T08:02:25.158Z,16
2022-09-23T08:04:56.247Z,14
2022-09-23T08:07:28.554Z,16
2022-09-23T08:10:01.170Z,13
2022-09-23T08:12:33.809Z,16
2022-09-23T08:15:06.601Z,16
2022-09-23T08:17:39.108Z,16
2022-09-23T08:20:12.195Z,16
2022-09-23T08:22:44.367Z,16
2022-09-23T08:25:19.853Z,18
2022-09-23T08:27:49.864Z,16
2022-09-23T08:30:22.513Z,16
2022-09-23T08:32:54.931Z,14
2022-09-23T08:35:25.808Z,16
2022-09-23T08:37:58.029Z,19
2022-09-23T08:40:31.254Z,16
2022-09-23T08:43:03.655Z,16
2022-09-23T08:45:36.403Z,16
2022-09-23T08:48:12.786Z,12
2022-09-23T08:50:41.417Z,12
2022-09-23T08:53:13.804Z,12
2022-09-23T08:55:46.751Z,16
2022-09-23T08:58:26.791Z,12
2022-09-23T09:00:51.473Z,12
2022-09-23T09:03:24.346Z,13
2022-09-23T09:05:58.041Z,16
2022-09-23T09:08:30.465Z,16
2022-09-23T09:11:03.022Z,16
2022-09-23T09:13:33.837Z,14
2022-09-23T09:16:06.285Z,12
2022-09-23T09:18:38.766Z,12
2022-09-23T09:21:10.716Z,16
2022-09-23T09:23:43.170Z,12
2022-09-23T09:26:16.833Z,12
2022-09-23T09:28:49.412Z,12
2022-09-23T09:31:21.301Z,16
2022-09-23T09:33:53.208Z,12
2022-09-23T09:36:25.693Z,8
2022-09-23T09:38:58.041Z,9
2022-09-23T09:41:30.565Z,15
2022-09-23T09:44:02.879Z,8
2022-09-23T09:46:35.188Z,15
2022-09-23T09:49:08.345Z,8
2022-09-23T09:51:41.514Z,8
2022-09-23T09:54:13.859Z,9
2022-09-23T09:59:19.591Z,8
2022-09-23T10:01:52.366Z,11
2022-09-23T10:04:24.794Z,12
2022-09-23T10:06:56.985Z,12
2022-09-23T10:09:29.132Z,8
2022-09-23T10:12:01.278Z,12
2022-09-23T10:14:33.096Z,12
2022-09-23T10:17:06.793Z,8
2022-09-23T10:19:39.151Z,8
2022-09-23T10:22:13.546Z,12
2022-09-23T10:24:46.102Z,13
2022-09-23T10:27:18.294Z,8
2022-09-23T10:29:50.768Z,8
2022-09-23T10:32:22.641Z,6
2022-09-23T10:34:56.469Z,8
2022-09-23T10:37:28.904Z,5
2022-09-23T10:40:01.281Z,8
2022-09-23T10:42:33.732Z,8
2022-09-23T10:45:06.065Z,8
2022-09-23T10:47:38.178Z,4
2022-09-23T10:50:08.934Z,4
2022-09-23T10:52:41.385Z,8
2022-09-23T10:55:13.405Z,5
2022-09-23T10:57:46.703Z,4
2022-09-23T11:00:18.546Z,4
2022-09-23T11:02:50.859Z,8
2022-09-23T11:05:22.601Z,4
2022-09-23T11:07:54.901Z,8
2022-09-23T11:10:45.313Z,5
2022-09-23T11:12:59.552Z,8
2022-09-23T11:15:30.187Z,7
2022-09-23T11:18:02.300Z,4
2022-09-23T11:20:36.167Z,4
2022-09-23T11:23:08.521Z,8
2022-09-23T11:25:40.926Z,12
2022-09-23T11:28:12.872Z,8
2022-09-23T11:30:45.472Z,8
2022-09-23T11:33:17.310Z,8
2022-09-23T11:35:49.360Z,8
2022-09-23T11:38:21.365Z,5
2022-09-23T11:40:53.385Z,5
2022-09-23T11:43:28.090Z,8
2022-09-23T11:45:59.730Z,4
2022-09-23T11:48:31.339Z,4
2022-09-23T11:51:04.564Z,4
2022-09-23T11:53:36.589Z,4
2022-09-23T11:56:08.714Z,4
2022-09-23T11:58:40.943Z,4
2022-09-23T12:01:13.087Z,4
2022-09-23T12:03:45.331Z,4
2022-09-23T12:06:17.390Z,4
2022-09-23T12:08:49.336Z,4
2022-09-23T12:11:19.908Z,8
2022-09-23T12:13:52.024Z,8
2022-09-23T12:16:23.722Z,8
2022-09-23T12:18:55.684Z,8
2022-09-23T12:21:49.568Z,4
2022-09-23T12:24:02.916Z,4
2022-09-23T12:26:35.251Z,4
2022-09-23T12:29:07.057Z,4
2022-09-23T12:31:40.341Z,4
2022-09-23T12:34:11.364Z,4
2022-09-23T12:36:43.658Z,4
2022-09-23T12:39:16.130Z,7
2022-09-23T12:41:48.637Z,5
2022-09-23T12:44:21.016Z,4
2022-09-23T12:46:54.701Z,4
2022-09-23T12:49:25.388Z,4
2022-09-23T12:51:57.966Z,4
2022-09-23T12:54:30.703Z,7
2022-09-23T12:57:03.341Z,4
2022-09-23T12:59:35.909Z,4
2022-09-23T13:02:09.504Z,4
2022-09-23T13:04:41.432Z,8
2022-09-23T13:07:14.601Z,4
2022-09-23T13:09:46.737Z,4
2022-09-23T13:12:19.190Z,4
2022-09-23T13:14:51.999Z,4
2022-09-23T13:17:28.340Z,4
2022-09-23T13:20:01.020Z,4
2022-09-23T13:22:33.379Z,4
2022-09-23T13:25:06.751Z,4
2022-09-23T13:27:39.115Z,8
2022-09-23T13:30:11.512Z,4
2022-09-23T13:32:44.562Z,5
2022-09-23T13:35:16.731Z,4
2022-09-23T13:37:52.840Z,4
2022-09-23T13:40:26.900Z,4
2022-09-23T13:42:59.541Z,7
2022-09-23T13:45:33.601Z,4
2022-09-23T13:48:06.465Z,4
2022-09-23T13:50:39.604Z,8
2022-09-23T13:53:11.930Z,4
2022-09-23T13:55:46.950Z,4
2022-09-23T13:58:18.365Z,4
2022-09-23T14:00:50.923Z,4
2022-09-23T14:03:21.565Z,4
2022-09-23T14:05:53.990Z,8
2022-09-23T14:08:26.532Z,8
2022-09-23T14:10:59.907Z,4
2022-09-23T14:13:32.810Z,4
2022-09-23T14:16:08.153Z,12
2022-09-23T14:18:40.751Z,12
2022-09-23T14:21:16.848Z,4
2022-09-23T14:23:49.049Z,5
2022-09-23T14:26:21.959Z,8
2022-09-23T14:28:53.888Z,7
2022-09-23T14:31:26.129Z,4
2022-09-23T14:33:58.265Z,8
2022-09-23T14:36:30.786Z,4
2022-09-23T14:39:02.712Z,4
2022-09-23T14:41:33.164Z,7
2022-09-23T14:44:06.422Z,6
2022-09-23T14:46:38.807Z,8
2022-09-23T14:49:10.895Z,8
2022-09-23T14:51:42.998Z,13
2022-09-23T14:54:16.186Z,7
2022-09-23T14:56:48.637Z,4
2022-09-23T14:59:21.853Z,4
2022-09-23T15:01:53.967Z,8
2022-09-23T15:04:26.418Z,8
2022-09-23T15:06:58.520Z,8
2022-09-23T15:09:29.261Z,8
2022-09-23T15:12:01.857Z,7
2022-09-23T15:14:40.812Z,4
2022-09-23T15:17:04.707Z,4
2022-09-23T15:19:36.773Z,4
2022-09-23T15:22:08.948Z,4
2022-09-23T15:24:41.322Z,4
2022-09-23T15:27:13.799Z,4
2022-09-23T15:29:46.540Z,8
2022-09-23T15:32:18.932Z,7
2022-09-23T15:34:51.326Z,4
2022-09-23T15:37:23.803Z,4
2022-09-23T15:39:54.898Z,4
2022-09-23T15:42:27.074Z,4
2022-09-23T15:44:59.135Z,8
2022-09-23T15:47:31.913Z,8
2022-09-23T15:50:04.210Z,8
2022-09-23T15:52:36.918Z,8
2022-09-23T15:55:09.494Z,4
2022-09-23T15:57:43.136Z,4
2022-09-23T16:00:15.958Z,4
2022-09-23T16:02:57.087Z,4
2022-09-23T16:05:29.817Z,4
2022-09-23T16:08:06.403Z,4
2022-09-23T16:10:34.713Z,5
2022-09-23T16:13:07.251Z,11
2022-09-23T16:15:40.329Z,8
2022-09-23T16:18:13.777Z,8
2022-09-23T16:20:46.283Z,8
2022-09-23T16:23:18.518Z,6
2022-09-23T16:25:51.087Z,8
2022-09-23T16:28:23.399Z,8
2022-09-23T16:30:56.066Z,8
2022-09-23T16:33:28.319Z,8
2022-09-23T16:36:00.181Z,8
2022-09-23T16:38:32.517Z,4
2022-09-23T16:41:04.938Z,8
2022-09-23T16:43:36.916Z,8
2022-09-23T16:46:10.477Z,4
2022-09-23T16:48:43.687Z,8
2022-09-23T16:51:15.744Z,8
2022-09-23T16:53:47.760Z,12
2022-09-23T16:56:23.011Z,12
2022-09-23T16:58:52.042Z,12
2022-09-23T17:01:24.236Z,12
2022-09-23T17:03:56.371Z,12
2022-09-23T17:06:29.406Z,9
2022-09-23T17:09:01.707Z,12
2022-09-23T17:11:34.384Z,12
2022-09-23T17:14:06.746Z,16
2022-09-23T17:16:39.035Z,12
2022-09-23T17:19:11.100Z,12
2022-09-23T17:21:43.300Z,12
2022-09-23T17:24:15.611Z,12
2022-09-23T17:26:52.124Z,13
2022-09-23T17:29:21.554Z,16
2022-09-23T17:31:53.892Z,20
2022-09-23T17:34:26.862Z,22
2022-09-23T17:36:59.274Z,30
2022-09-23T17:39:31.739Z,28
2022-09-23T17:42:04.146Z,24
2022-09-23T17:44:36.498Z,24
2022-09-23T17:47:08.823Z,24
2022-09-23T17:49:41.060Z,24
2022-09-23T17:52:13.396Z,24
2022-09-23T17:54:45.826Z,28
2022-09-23T17:57:18.190Z,28
2022-09-23T17:59:51.538Z,28
2022-09-23T18:02:23.841Z,28
2022-09-23T18:04:56.427Z,28
2022-09-23T18:07:28.703Z,32
2022-09-23T18:10:05.845Z,32
2022-09-23T18:12:38.062Z,36
2022-09-23T18:15:10.308Z,34
2022-09-23T18:17:43.465Z,37
2022-09-23T18:20:15.595Z,34
2022-09-23T18:22:47.366Z,36
2022-09-23T18:25:37.944Z,36
2022-09-23T18:27:51.807Z,36
2022-09-23T18:30:23.879Z,36
2022-09-23T18:32:55.900Z,36
2022-09-23T18:35:27.947Z,40
2022-09-23T18:37:59.868Z,35
2022-09-23T18:40:31.941Z,32
2022-09-23T18:43:04.656Z,34
2022-09-23T18:45:36.929Z,36
2022-09-23T18:48:08.971Z,36
2022-09-23T18:50:43.392Z,36
2022-09-23T18:53:15.825Z,36
2022-09-23T18:55:48.297Z,36
2022-09-23T18:58:19.578Z,32
2022-09-23T19:00:51.894Z,36
2022-09-23T19:03:23.624Z,34
2022-09-23T19:05:55.781Z,32
2022-09-23T19:08:28.049Z,36
2022-09-23T19:11:00.029Z,35
2022-09-23T19:13:31.989Z,33
2022-09-23T19:16:04.623Z,33
2022-09-23T19:18:37.008Z,36
2022-09-23T19:21:11.304Z,35
2022-09-23T19:23:43.703Z,36
2022-09-23T19:26:17.314Z,34
2022-09-23T19:28:49.772Z,32
2022-09-23T19:31:23.348Z,33
2022-09-23T19:33:56.071Z,32
2022-09-23T19:36:28.369Z,32
2022-09-23T19:39:00.725Z,32
2022-09-23T19:41:33.663Z,32
2022-09-23T19:44:07.267Z,32
2022-09-23T19:46:39.569Z,32
2022-09-23T19:49:12.935Z,29
2022-09-23T19:51:43.788Z,30
2022-09-23T19:54:16.084Z,28
2022-09-23T19:56:48.524Z,28
2022-09-23T19:59:23.021Z,32
2022-09-23T20:01:55.709Z,30
2022-09-23T20:04:27.933Z,34
2022-09-23T20:06:58.671Z,32
2022-09-23T20:09:30.971Z,36
2022-09-23T20:12:03.510Z,40
2022-09-23T20:14:36.067Z,36
2022-09-23T20:17:08.274Z,36
2022-09-23T20:19:41.252Z,36
2022-09-23T20:22:13.460Z,32
2022-09-23T20:24:45.917Z,33
2022-09-23T20:27:18.142Z,33
2022-09-23T20:29:50.321Z,33
2022-09-23T20:32:22.990Z,32
2022-09-23T20:34:54.145Z,32
2022-09-23T20:37:25.605Z,31
2022-09-23T20:39:58.014Z,32
2022-09-23T20:42:30.809Z,32
2022-09-23T20:45:03.100Z,34
2022-09-23T20:47:36.725Z,33
2022-09-23T20:50:09.217Z,35
2022-09-23T20:52:41.754Z,32
2022-09-23T20:55:17.064Z,32
2022-09-23T20:57:49.186Z,32
2022-09-23T21:00:19.933Z,31
2022-09-23T21:02:51.742Z,28
2022-09-23T21:05:24.347Z,32
2022-09-23T21:07:59.588Z,31
2022-09-23T21:10:28.991Z,30
2022-09-23T21:13:02.858Z,28
2022-09-23T21:15:34.743Z,32
2022-09-23T21:18:09.141Z,29
2022-09-23T21:20:39.640Z,30
2022-09-23T21:23:11.970Z,28
2022-09-23T21:25:44.970Z,28
2022-09-23T21:28:16.208Z,28
2022-09-23T21:30:51.903Z,28
2022-09-23T21:33:21.066Z,28
2022-09-23T21:35:53.402Z,31
2022-09-23T21:38:25.968Z,28
2022-09-23T21:40:58.154Z,28
2022-09-23T21:43:30.409Z,28
2022-09-23T21:46:02.906Z,28
2022-09-23T21:48:34.854Z,25
2022-09-23T21:51:07.028Z,26
2022-09-23T21:53:39.360Z,27
2022-09-23T21:56:10.605Z,26
2022-09-23T21:58:41.359Z,28
2022-09-23T22:01:13.505Z,24
2022-09-23T22:03:45.784Z,27
2022-09-23T22:06:18.192Z,28
2022-09-23T22:08:51.526Z,28
2022-09-23T22:11:23.383Z,25
2022-09-23T22:13:55.929Z,24
2022-09-23T22:16:28.740Z,25
2022-09-23T22:19:00.138Z,28
2022-09-23T22:21:32.623Z,24
2022-09-23T22:24:06.203Z,24
2022-09-23T22:26:38.321Z,24
2022-09-23T22:29:10.753Z,25
2022-09-23T22:31:43.182Z,27
2022-09-23T22:34:31.222Z,27
2022-09-23T22:36:48.019Z,28
2022-09-23T22:39:21.520Z,28
2022-09-23T22:41:54.118Z,24
2022-09-23T22:44:26.463Z,28
2022-09-23T22:47:00.442Z,25
2022-09-23T22:49:33.011Z,27
2022-09-23T22:52:06.689Z,24
2022-09-23T22:54:39.218Z,22
2022-09-23T22:57:11.590Z,24
2022-09-23T22:59:44.073Z,26
2022-09-23T23:02:16.909Z,24
2022-09-23T23:04:49.263Z,24
2022-09-23T23:07:21.879Z,24
2022-09-23T23:09:54.569Z,24
2022-09-23T23:12:28.109Z,24
2022-09-23T23:15:00.465Z,24
2022-09-23T23:17:33.202Z,24
2022-09-23T23:20:06.812Z,21
2022-09-23T23:22:39.139Z,24
2022-09-23T23:25:11.580Z,24
2022-09-23T23:27:43.840Z,24
2022-09-23T23:30:16.202Z,24
2022-09-23T23:32:48.295Z,24
2022-09-23T23:35:21.429Z,24
2022-09-23T23:37:54.449Z,20
2022-09-23T23:40:26.978Z,24
2022-09-23T23:42:59.598Z,24
2022-09-23T23:45:32.079Z,24
2022-09-23T23:48:04.682Z,24
2022-09-23T23:50:37.336Z,24
2022-09-23T23:53:10.028Z,23
2022-09-23T23:55:43.643Z,24
2022-09-23T23:58:16.261Z,24
